Time;durP1;ratioP1;P1;durP2;ratioP2;P2;SDS_P1;SDS_P2;PMS_P1;PMS_P2;Temp;Humidity;BMP_temperature;BMP_pressure;BME280_temperature;BME280_humidity;BME280_pressure;Samples;Min_cycle;Max_cycle;Signal;HPM_P1;HPM_P2
2022/09/01 00:04:04;;;;;;;0.20;0.00;;;21.80;99.90;;;;;;26145472;22;20187;-75
2022/09/01 00:14:10;;;;;;;0.20;0.10;;;21.60;99.90;;;;;;26171388;22;20170;-74
2022/09/01 00:24:35;;;;;;;0.20;0.00;;;21.70;99.90;;;;;;26169519;22;20183;-75
2022/09/01 00:34:39;;;;;;;0.20;0.00;;;21.60;99.90;;;;;;26172532;22;20155;-75
2022/09/01 00:44:44;;;;;;;0.20;0.00;;;21.40;99.90;;;;;;26168325;22;20179;-74
2022/09/01 00:54:53;;;;;;;0.20;0.00;;;21.50;99.90;;;;;;26170113;22;20225;-75
2022/09/01 01:04:59;;;;;;;0.20;0.00;;;21.40;99.90;;;;;;26141208;22;20206;-75
2022/09/01 01:15:05;;;;;;;0.20;0.00;;;21.50;99.90;;;;;;26169956;22;20158;-74
2022/09/01 01:25:11;;;;;;;0.20;0.00;;;21.70;99.90;;;;;;26170372;22;20198;-74
2022/09/01 01:35:22;;;;;;;0.20;0.10;;;21.70;99.90;;;;;;26169228;22;20155;-74
2022/09/01 01:45:28;;;;;;;0.20;0.00;;;21.70;99.90;;;;;;26170728;22;20179;-74
2022/09/01 01:55:32;;;;;;;0.20;0.00;;;21.60;99.90;;;;;;26170004;22;20237;-74
2022/09/01 02:05:37;;;;;;;0.20;0.00;;;21.60;99.90;;;;;;26147640;22;20199;-73
2022/09/01 02:15:44;;;;;;;0.20;0.00;;;21.60;99.90;;;;;;26147650;22;20163;-72
2022/09/01 02:25:52;;;;;;;0.20;0.00;;;21.30;99.90;;;;;;26175030;22;20183;-74
2022/09/01 02:36:19;;;;;;;0.20;0.00;;;21.20;99.90;;;;;;26149175;22;20163;-74
2022/09/01 02:46:25;;;;;;;0.20;0.00;;;21.30;99.90;;;;;;26146716;22;20639;-74
2022/09/01 02:56:28;;;;;;;0.20;0.00;;;21.30;99.90;;;;;;26175077;22;20192;-74
2022/09/01 03:06:35;;;;;;;0.20;0.00;;;21.40;99.90;;;;;;26173870;22;20202;-75
2022/09/01 03:16:40;;;;;;;0.20;0.00;;;21.50;99.90;;;;;;26148151;22;20175;-73
2022/09/01 03:26:48;;;;;;;0.20;0.00;;;21.70;99.90;;;;;;26144013;22;20190;-73
2022/09/01 03:36:53;;;;;;;0.20;0.10;;;21.70;99.90;;;;;;26145992;22;20155;-74
2022/09/01 03:47:00;;;;;;;0.20;0.00;;;21.70;99.90;;;;;;26143986;22;20190;-73
2022/09/01 03:57:08;;;;;;;0.20;0.00;;;21.60;99.90;;;;;;26171969;22;20247;-73
2022/09/01 04:07:13;;;;;;;0.20;0.00;;;21.40;99.90;;;;;;26169465;22;20274;-73
2022/09/01 04:27:46;;;;;;;0.20;0.10;;;21.40;99.90;;;;;;26118633;22;20175;-73
2022/09/01 04:37:50;;;;;;;0.20;0.00;;;21.50;99.90;;;;;;26171097;22;20171;-73
2022/09/01 04:47:55;;;;;;;0.20;0.00;;;21.50;99.90;;;;;;26141132;22;20195;-74
2022/09/01 04:58:03;;;;;;;0.20;0.00;;;21.40;99.90;;;;;;26139225;22;20183;-73
2022/09/01 05:08:16;;;;;;;0.20;0.00;;;21.50;99.90;;;;;;26142906;22;20222;-75
2022/09/01 05:18:26;;;;;;;0.20;0.00;;;21.40;99.90;;;;;;26169393;22;20163;-73
2022/09/01 05:28:32;;;;;;;0.20;0.00;;;21.50;99.90;;;;;;26167143;22;20201;-74
2022/09/01 05:38:35;;;;;;;0.20;0.00;;;21.40;99.90;;;;;;26144516;22;20167;-73
2022/09/01 05:48:41;;;;;;;0.20;0.00;;;21.40;99.90;;;;;;26144854;22;20191;-73
2022/09/01 05:58:46;;;;;;;0.20;0.00;;;21.50;99.90;;;;;;26173255;22;20187;-74
2022/09/01 06:09:12;;;;;;;0.20;0.00;;;21.80;99.90;;;;;;26174579;22;20199;-74
2022/09/01 06:19:19;;;;;;;0.20;0.00;;;21.90;99.90;;;;;;26146373;22;20160;-69
2022/09/01 06:29:25;;;;;;;0.20;0.00;;;22.20;99.90;;;;;;26143246;22;20367;-73
2022/09/01 06:39:30;;;;;;;0.20;0.10;;;22.40;99.90;;;;;;26174410;22;20168;-73
2022/09/01 06:49:38;;;;;;;0.20;0.10;;;22.70;99.90;;;;;;26171705;22;20183;-74
2022/09/01 06:59:42;;;;;;;0.20;0.10;;;23.00;99.90;;;;;;26144428;22;20275;-73
2022/09/01 07:09:51;;;;;;;0.20;0.10;;;23.40;99.90;;;;;;26142707;22;20199;-73
2022/09/01 07:20:15;;;;;;;0.20;0.00;;;23.80;99.90;;;;;;26172120;22;20178;-73
2022/09/01 07:30:30;;;;;;;0.20;0.00;;;24.20;99.90;;;;;;26141920;22;20225;-73
2022/09/01 07:40:36;;;;;;;0.20;0.00;;;24.50;99.90;;;;;;26142670;22;20175;-74
2022/09/01 07:51:02;;;;;;;0.20;0.00;;;25.00;99.90;;;;;;26167743;22;20202;-73
2022/09/01 08:01:27;;;;;;;0.20;0.00;;;25.40;99.90;;;;;;26168123;22;20703;-74
2022/09/01 08:11:33;;;;;;;0.20;0.00;;;26.00;99.90;;;;;;26166840;22;20252;-74
2022/09/01 08:21:57;;;;;;;0.20;0.00;;;26.80;99.90;;;;;;26138435;22;20194;-73
2022/09/01 08:32:02;;;;;;;0.20;0.10;;;27.30;99.90;;;;;;26167070;22;20164;-75
2022/09/01 08:42:15;;;;;;;0.20;0.10;;;27.50;99.90;;;;;;26141591;22;20187;-75
2022/09/01 08:52:27;;;;;;;0.20;0.00;;;27.50;99.90;;;;;;26166928;22;20147;-73
2022/09/01 09:02:43;;;;;;;0.20;0.05;;;27.60;99.90;;;;;;26166752;22;20199;-73
2022/09/01 09:13:05;;;;;;;0.20;0.00;;;27.70;99.90;;;;;;26144079;22;20190;-75
2022/09/01 09:23:21;;;;;;;0.20;0.00;;;27.70;99.90;;;;;;26176172;22;20179;-74
2022/09/01 09:33:38;;;;;;;0.20;0.00;;;28.20;99.90;;;;;;26175114;22;20211;-74
2022/09/01 09:44:00;;;;;;;0.20;0.00;;;28.50;99.90;;;;;;26173643;22;20184;-74
2022/09/01 09:54:18;;;;;;;0.20;0.00;;;28.70;99.90;;;;;;26147170;22;20174;-73
2022/09/01 10:04:34;;;;;;;0.20;0.00;;;28.80;99.90;;;;;;26145485;22;20209;-74
2022/09/01 10:14:46;;;;;;;0.20;0.00;;;29.00;99.90;;;;;;26145231;22;20163;-75
2022/09/01 10:24:55;;;;;;;0.20;0.05;;;29.00;99.90;;;;;;26147128;22;20246;-74
2022/09/01 10:35:03;;;;;;;0.20;0.00;;;29.20;99.90;;;;;;26171031;22;20227;-73
2022/09/01 10:45:18;;;;;;;0.20;0.00;;;29.50;99.90;;;;;;26171307;22;20186;-74
2022/09/01 10:55:25;;;;;;;0.20;0.00;;;30.40;99.90;;;;;;26144205;22;20282;-72
2022/09/01 11:05:59;;;;;;;0.20;0.00;;;30.70;99.90;;;;;;26141091;22;20191;-74
2022/09/01 11:16:31;;;;;;;0.20;0.00;;;31.50;99.90;;;;;;26169112;22;20171;-74
2022/09/01 11:26:52;;;;;;;0.20;0.00;;;32.00;99.90;;;;;;26171957;22;20175;-75
2022/09/01 11:37:00;;;;;;;0.20;0.00;;;31.90;99.90;;;;;;26169214;22;20192;-75
2022/09/01 11:47:07;;;;;;;0.20;0.00;;;32.20;99.90;;;;;;26143528;22;20278;-78
2022/09/01 11:57:21;;;;;;;0.20;0.00;;;32.70;99.90;;;;;;26169936;22;20198;-74
2022/09/01 12:07:29;;;;;;;0.20;0.00;;;33.70;99.90;;;;;;26142432;22;20203;-74
2022/09/01 12:17:35;;;;;;;0.20;0.00;;;32.60;99.90;;;;;;26139633;22;20227;-74
2022/09/01 12:27:39;;;;;;;0.20;0.00;;;33.30;99.90;;;;;;26168676;22;20247;-73
2022/09/01 12:37:44;;;;;;;0.20;0.00;;;33.80;99.90;;;;;;26138712;22;20722;-74
2022/09/01 12:47:50;;;;;;;0.20;0.00;;;34.40;99.90;;;;;;26168418;22;20542;-75
2022/09/01 12:57:58;;;;;;;0.20;0.00;;;34.50;99.90;;;;;;26166115;22;20203;-72
2022/09/01 13:08:03;;;;;;;0.20;0.00;;;34.80;99.90;;;;;;26167845;22;20274;-74
2022/09/01 13:18:11;;;;;;;0.20;0.00;;;35.30;99.90;;;;;;26141651;22;20160;-75
2022/09/01 13:28:16;;;;;;;0.20;0.00;;;34.80;99.90;;;;;;26139134;22;20179;-74
2022/09/01 13:38:23;;;;;;;0.20;0.00;;;34.60;99.90;;;;;;26138568;22;20231;-73
2022/09/01 13:48:27;;;;;;;0.20;0.00;;;34.40;99.90;;;;;;26165847;22;20192;-75
2022/09/01 13:58:53;;;;;;;0.20;0.00;;;34.80;99.90;;;;;;26169640;22;20191;-75
2022/09/01 14:08:57;;;;;;;0.20;0.00;;;35.40;99.90;;;;;;26173728;22;20264;-74
2022/09/01 14:19:03;;;;;;;0.20;0.00;;;35.30;99.90;;;;;;26146095;22;20163;-75
2022/09/01 14:29:07;;;;;;;0.20;0.00;;;35.10;99.90;;;;;;26169400;22;20211;-74
2022/09/01 14:39:12;;;;;;;0.20;0.00;;;35.30;99.90;;;;;;26143370;22;20168;-74
2022/09/01 14:49:16;;;;;;;0.20;0.00;;;35.10;99.90;;;;;;26142029;22;20211;-75
2022/09/01 14:59:26;;;;;;;0.20;0.00;;;35.10;99.90;;;;;;26169921;22;20241;-73
2022/09/01 15:09:30;;;;;;;0.20;0.00;;;35.20;99.90;;;;;;26140166;22;20207;-72
2022/09/01 15:19:35;;;;;;;0.20;0.00;;;35.50;99.90;;;;;;26170413;22;20222;-73
2022/09/01 15:29:44;;;;;;;0.20;0.00;;;34.80;99.90;;;;;;26169786;22;20187;-74
2022/09/01 15:39:49;;;;;;;0.20;0.00;;;33.10;99.90;;;;;;26113498;22;20199;-73
2022/09/01 15:49:53;;;;;;;0.20;0.00;;;31.50;99.90;;;;;;26168816;22;20892;-73
2022/09/01 15:59:58;;;;;;;0.20;0.00;;;31.00;99.90;;;;;;26165205;22;20192;-74
2022/09/01 16:10:02;;;;;;;0.20;0.00;;;30.60;99.90;;;;;;26168151;22;20199;-73
2022/09/01 16:20:13;;;;;;;0.20;0.00;;;30.20;99.90;;;;;;26137483;22;20166;-73
2022/09/01 16:30:21;;;;;;;0.20;0.00;;;30.00;99.90;;;;;;26166993;22;20168;-74
2022/09/01 16:40:38;;;;;;;0.20;0.00;;;29.90;99.90;;;;;;26139626;22;20261;-73
2022/09/01 16:50:45;;;;;;;0.20;0.00;;;29.70;99.90;;;;;;26165022;22;20179;-73
2022/09/01 17:01:00;;;;;;;0.20;0.05;;;29.30;99.90;;;;;;26163719;22;20187;-74
2022/09/01 17:11:09;;;;;;;0.20;0.00;;;29.00;99.90;;;;;;26163349;22;20218;-73
2022/09/01 17:21:18;;;;;;;0.20;0.00;;;29.20;99.90;;;;;;26163839;22;20166;-73
2022/09/01 17:31:50;;;;;;;0.20;0.00;;;29.80;99.90;;;;;;26138404;22;20191;-73
2022/09/01 17:41:59;;;;;;;0.20;0.10;;;30.40;99.90;;;;;;26173674;22;20167;-73
2022/09/01 17:52:13;;;;;;;0.20;0.00;;;29.50;99.90;;;;;;26143064;22;20254;-73
2022/09/01 18:02:42;;;;;;;0.20;0.10;;;28.50;99.90;;;;;;26170912;22;20190;-73
2022/09/01 18:12:54;;;;;;;0.20;0.00;;;28.00;99.90;;;;;;26173409;22;20630;-73
2022/09/01 18:23:05;;;;;;;0.20;0.00;;;27.60;99.90;;;;;;26170609;22;20628;-73
2022/09/01 18:33:21;;;;;;;0.20;0.00;;;27.40;99.90;;;;;;26169917;22;20173;-73
2022/09/01 18:43:33;;;;;;;0.20;0.05;;;27.30;99.90;;;;;;26170650;22;20183;-71
2022/09/01 18:53:45;;;;;;;0.20;0.00;;;27.00;99.90;;;;;;26171016;22;20163;-73
2022/09/01 19:03:57;;;;;;;0.20;0.00;;;26.90;99.90;;;;;;26141701;22;20214;-73
2022/09/01 19:14:13;;;;;;;0.20;0.00;;;26.90;99.90;;;;;;26139026;22;20173;-73
2022/09/01 19:24:26;;;;;;;0.20;0.00;;;26.60;99.90;;;;;;26167307;22;20242;-72
2022/09/01 19:34:36;;;;;;;0.20;0.00;;;26.20;99.90;;;;;;26168222;22;20159;-73
2022/09/01 19:44:48;;;;;;;0.20;0.00;;;25.80;99.90;;;;;;26170131;22;20195;-71
2022/09/01 19:54:59;;;;;;;0.20;0.00;;;25.30;99.90;;;;;;26170171;22;20183;-73
2022/09/01 20:05:09;;;;;;;0.20;0.00;;;25.30;99.90;;;;;;26144363;22;20226;-73
2022/09/01 20:15:23;;;;;;;0.20;0.00;;;25.30;99.90;;;;;;26171046;22;20156;-73
2022/09/01 20:25:32;;;;;;;0.20;0.10;;;24.80;99.90;;;;;;26168816;22;20272;-73
2022/09/01 20:35:44;;;;;;;0.20;0.00;;;24.90;99.90;;;;;;26144139;22;20175;-72
2022/09/01 20:45:49;;;;;;;0.20;0.00;;;24.80;99.90;;;;;;26168085;22;20192;-72
2022/09/01 20:55:57;;;;;;;0.20;0.00;;;24.80;99.90;;;;;;26167360;22;20247;-72
2022/09/01 21:06:09;;;;;;;0.20;0.00;;;24.60;99.90;;;;;;26169750;22;20203;-73
2022/09/01 21:16:20;;;;;;;0.20;0.00;;;24.50;99.90;;;;;;26177853;22;20156;-72
2022/09/01 21:26:25;;;;;;;0.20;0.00;;;24.40;99.90;;;;;;26147825;22;20187;-71
2022/09/01 21:36:29;;;;;;;0.20;0.00;;;24.30;99.90;;;;;;26149160;22;20212;-72
2022/09/01 21:46:35;;;;;;;0.20;0.00;;;24.30;99.90;;;;;;26176591;22;20190;-72
2022/09/01 21:56:38;;;;;;;0.20;0.00;;;24.20;99.90;;;;;;26150781;22;20198;-72
2022/09/01 22:06:46;;;;;;;0.20;0.00;;;24.10;99.90;;;;;;26147455;22;20191;-70
2022/09/01 22:16:50;;;;;;;0.20;0.00;;;24.10;99.90;;;;;;26175913;22;20168;-72
2022/09/01 22:26:55;;;;;;;0.20;0.00;;;24.10;99.90;;;;;;26175125;22;20222;-72
2022/09/01 22:36:59;;;;;;;0.20;0.00;;;24.10;99.90;;;;;;26147128;22;20163;-71
2022/09/01 22:47:05;;;;;;;0.20;0.00;;;24.20;99.90;;;;;;26146201;22;20220;-72
2022/09/01 22:57:08;;;;;;;0.20;0.10;;;24.10;99.90;;;;;;26175843;22;20198;-72
2022/09/01 23:07:14;;;;;;;0.20;0.00;;;24.00;99.90;;;;;;26173769;22;20195;-71
2022/09/01 23:17:17;;;;;;;0.20;0.00;;;24.00;99.90;;;;;;26174369;22;20163;-72
2022/09/01 23:27:23;;;;;;;0.20;0.00;;;23.80;99.90;;;;;;26173428;22;20194;-72
2022/09/01 23:37:27;;;;;;;0.20;0.00;;;23.80;99.90;;;;;;26172013;22;20166;-71
2022/09/01 23:47:32;;;;;;;0.20;0.00;;;23.70;99.90;;;;;;26173629;22;20188;-72
2022/09/01 23:57:36;;;;;;;0.20;0.00;;;23.60;99.90;;;;;;26145963;22;20199;-72
